createdAt,value
2022-09-11T00:04:00.836Z,67.80
2022-09-11T00:10:14.527Z,65.28
2022-09-11T00:16:27.577Z,41.90
2022-09-11T00:22:41.413Z,39.90
2022-09-11T00:28:53.051Z,41.25
2022-09-11T00:35:05.884Z,39.75
2022-09-11T00:41:20.284Z,32.53
2022-09-11T00:47:29.563Z,33.95
2022-09-11T00:53:43.521Z,26.02
2022-09-11T00:59:56.571Z,33.30
2022-09-11T01:12:27.953Z,21.60
2022-09-11T01:18:43.707Z,20.08
2022-09-11T01:25:11.922Z,27.10
2022-09-11T01:31:26.170Z,24.52
2022-09-11T01:37:40.957Z,18.00
2022-09-11T01:43:55.677Z,17.87
2022-09-11T01:50:06.349Z,20.30
2022-09-11T01:56:18.024Z,17.45
2022-09-11T02:02:29.640Z,13.30
2022-09-11T02:08:48.725Z,16.73
2022-09-11T02:15:01.778Z,14.28
2022-09-11T02:21:13.191Z,13.18
2022-09-11T02:27:24.404Z,12.65
2022-09-11T02:33:34.729Z,10.58
2022-09-11T02:46:39.882Z,11.15
2022-09-11T02:52:55.174Z,9.68
2022-09-11T02:59:07.686Z,8.00
2022-09-11T03:05:19.343Z,7.47
2022-09-11T03:11:34.749Z,8.90
2022-09-11T03:17:50.393Z,7.90
2022-09-11T03:24:03.104Z,8.83
2022-09-11T03:30:18.843Z,6.37
2022-09-11T03:36:31.500Z,5.72
2022-09-11T03:42:45.911Z,5.85
2022-09-11T03:48:56.604Z,5.80
2022-09-11T03:55:05.384Z,6.67
2022-09-11T04:01:21.311Z,5.67
2022-09-11T04:07:37.218Z,4.30
2022-09-11T04:13:49.920Z,4.75
2022-09-11T04:20:01.959Z,4.95
2022-09-11T04:26:23.168Z,4.70
2022-09-11T04:32:34.880Z,4.65
2022-09-11T04:38:47.518Z,5.35
2022-09-11T04:44:58.353Z,5.17
2022-09-11T04:51:13.792Z,5.33
2022-09-11T04:57:26.644Z,4.80
2022-09-11T05:03:37.277Z,3.87
2022-09-11T05:09:50.443Z,4.20
2022-09-11T05:16:06.780Z,3.55
2022-09-11T05:22:19.614Z,4.10
2022-09-11T05:28:33.862Z,3.35
2022-09-11T05:34:42.962Z,3.72
2022-09-11T05:40:53.295Z,3.35
2022-09-11T05:47:05.024Z,2.67
2022-09-11T05:53:16.413Z,3.20
2022-09-11T05:59:27.427Z,3.33
2022-09-11T06:05:38.089Z,3.22
2022-09-11T06:11:50.564Z,2.77
2022-09-11T06:18:02.015Z,3.17
2022-09-11T06:24:16.857Z,2.95
2022-09-11T06:30:29.467Z,3.22
2022-09-11T06:36:42.634Z,2.83
2022-09-11T06:42:56.539Z,2.98
2022-09-11T06:49:07.295Z,3.62
2022-09-11T06:55:21.914Z,2.87
2022-09-11T07:01:32.334Z,3.30
2022-09-11T07:07:46.620Z,4.58
2022-09-11T07:13:57.406Z,2.80
2022-09-11T07:20:12.531Z,2.12
2022-09-11T07:26:25.245Z,2.52
2022-09-11T07:32:35.890Z,2.58
2022-09-11T07:38:47.824Z,3.72
2022-09-11T07:44:58.274Z,2.77
2022-09-11T07:51:08.698Z,2.42
2022-09-11T07:57:23.756Z,3.22
2022-09-11T08:03:35.539Z,3.50
2022-09-11T08:09:44.552Z,2.35
2022-09-11T08:15:54.241Z,3.33
2022-09-11T08:22:06.706Z,2.60
2022-09-11T08:28:21.126Z,2.52
2022-09-11T08:34:34.026Z,3.05
2022-09-11T08:40:44.989Z,2.50
2022-09-11T08:46:56.386Z,2.62
2022-09-11T08:53:12.773Z,2.75
2022-09-11T08:59:29.490Z,2.37
2022-09-11T09:05:43.675Z,2.25
2022-09-11T09:11:59.229Z,2.80
2022-09-11T09:18:12.950Z,3.02
2022-09-11T09:24:22.077Z,2.30
2022-09-11T09:30:31.682Z,1.47
2022-09-11T09:36:44.170Z,2.00
2022-09-11T09:43:09.327Z,2.85
2022-09-11T09:49:25.768Z,1.98
2022-09-11T09:55:38.261Z,2.50
2022-09-11T10:01:50.215Z,2.40
2022-09-11T10:08:03.977Z,2.50
2022-09-11T10:14:28.922Z,1.47
2022-09-11T10:20:33.789Z,3.67
2022-09-11T10:26:48.377Z,1.80
2022-09-11T10:33:03.308Z,2.75
2022-09-11T10:39:17.275Z,3.02
2022-09-11T10:45:30.272Z,1.65
2022-09-11T10:51:47.564Z,2.42
2022-09-11T10:57:58.617Z,2.52
2022-09-11T11:04:14.016Z,2.30
2022-09-11T11:10:30.015Z,1.92
2022-09-11T11:16:44.950Z,2.70
2022-09-11T11:23:34.956Z,1.95
2022-09-11T11:29:55.110Z,1.90
2022-09-11T11:36:09.706Z,2.10
2022-09-11T11:42:25.400Z,1.75
2022-09-11T11:48:40.176Z,1.97
2022-09-11T11:54:54.742Z,1.98
2022-09-11T12:01:06.368Z,1.90
2022-09-11T12:07:21.856Z,1.65
2022-09-11T12:13:40.184Z,1.98
2022-09-11T12:20:11.408Z,1.62
2022-09-11T12:26:27.217Z,1.75
2022-09-11T12:32:54.641Z,2.13
2022-09-11T12:39:06.975Z,1.52
2022-09-11T12:45:36.948Z,1.77
2022-09-11T12:51:53.434Z,1.60
2022-09-11T12:58:06.121Z,1.87
2022-09-11T13:04:22.223Z,2.40
2022-09-11T13:10:38.067Z,1.65
2022-09-11T13:16:53.424Z,2.07
2022-09-11T13:23:17.851Z,2.00
2022-09-11T13:29:27.930Z,1.82
2022-09-11T13:35:42.050Z,2.02
2022-09-11T13:41:55.661Z,3.08
2022-09-11T13:48:11.048Z,2.45
2022-09-11T13:54:24.901Z,2.08
2022-09-11T14:00:50.994Z,2.22
2022-09-11T14:07:01.661Z,5.25
2022-09-11T14:13:17.897Z,8.40
2022-09-11T14:19:31.698Z,2.80
2022-09-11T14:25:48.056Z,2.35
2022-09-11T14:38:08.072Z,5.53
2022-09-11T14:44:22.775Z,2.92
2022-09-11T14:50:35.861Z,3.83
2022-09-11T14:56:46.558Z,2.67
2022-09-11T15:02:55.495Z,4.35
2022-09-11T15:09:07.073Z,2.30
2022-09-11T15:15:20.399Z,5.22
2022-09-11T15:21:36.742Z,2.77
2022-09-11T15:27:47.560Z,3.87
2022-09-11T15:34:01.757Z,2.30
2022-09-11T15:40:20.624Z,8.48
2022-09-11T15:46:31.538Z,4.10
2022-09-11T15:52:45.747Z,2.87
2022-09-11T15:58:58.380Z,7.40
2022-09-11T16:05:09.310Z,2.50
2022-09-11T16:11:27.010Z,2.12
2022-09-11T16:17:37.775Z,2.83
2022-09-11T16:23:56.802Z,4.42
2022-09-11T16:36:21.934Z,18.20
2022-09-11T16:42:34.847Z,6.55
2022-09-11T16:48:50.612Z,9.03
2022-09-11T16:54:58.008Z,8.60
2022-09-11T17:01:08.733Z,6.12
2022-09-11T17:07:22.391Z,10.63
2022-09-11T17:13:33.888Z,17.15
2022-09-11T17:19:47.576Z,4.92
2022-09-11T17:25:56.736Z,4.25
2022-09-11T17:32:27.127Z,3.65
2022-09-11T17:38:24.965Z,3.45
2022-09-11T17:44:39.074Z,8.88
2022-09-11T17:50:54.006Z,5.10
2022-09-11T17:57:04.679Z,4.30
2022-09-11T18:03:17.060Z,5.08
2022-09-11T18:09:28.124Z,2.77
2022-09-11T18:15:40.616Z,4.72
2022-09-11T18:21:53.618Z,2.87
2022-09-11T18:28:03.356Z,4.03
2022-09-11T18:34:14.118Z,3.70
2022-09-11T18:40:23.542Z,3.77
2022-09-11T18:46:34.012Z,2.15
2022-09-11T18:52:46.838Z,3.00
2022-09-11T18:58:57.630Z,3.20
2022-09-11T19:05:07.138Z,2.37
2022-09-11T19:11:21.709Z,25.08
2022-09-11T19:17:32.656Z,2.08
2022-09-11T19:23:46.878Z,3.55
2022-09-11T19:30:00.629Z,2.97
2022-09-11T19:36:19.775Z,3.45
2022-09-11T19:42:31.034Z,4.67
2022-09-11T19:48:43.514Z,5.08
2022-09-11T19:54:54.687Z,4.03
2022-09-11T20:01:08.995Z,8.90
2022-09-11T20:07:21.823Z,5.83
2022-09-11T20:13:33.809Z,4.92
2022-09-11T20:19:47.246Z,2.20
2022-09-11T20:26:00.448Z,4.47
2022-09-11T20:32:14.658Z,1.77
2022-09-11T20:38:29.042Z,5.45
2022-09-11T20:44:40.824Z,2.77
2022-09-11T20:50:54.721Z,3.35
2022-09-11T20:57:04.190Z,5.75
2022-09-11T21:03:16.117Z,3.85
2022-09-11T21:09:28.941Z,3.95
2022-09-11T21:15:41.692Z,2.83
2022-09-11T21:21:54.171Z,5.08
2022-09-11T21:28:03.310Z,8.10
2022-09-11T21:34:13.030Z,3.95
2022-09-11T21:40:23.419Z,2.27
2022-09-11T21:46:35.256Z,4.58
2022-09-11T21:52:45.079Z,2.02
2022-09-11T21:58:57.369Z,1.85
2022-09-11T22:05:08.009Z,3.20
2022-09-11T22:11:18.947Z,5.60
2022-09-11T22:17:29.948Z,2.00
2022-09-11T22:23:40.703Z,2.12
2022-09-11T22:29:53.270Z,3.55
2022-09-11T22:36:06.187Z,3.33
2022-09-11T22:42:20.370Z,2.58
2022-09-11T22:48:32.838Z,2.37
2022-09-11T22:54:49.324Z,1.82
2022-09-11T23:01:00.818Z,3.08
2022-09-11T23:07:21.211Z,2.52
2022-09-11T23:13:33.421Z,1.55
2022-09-11T23:19:42.018Z,1.65
2022-09-11T23:25:51.035Z,2.15
2022-09-11T23:32:02.628Z,2.12
2022-09-11T23:38:15.639Z,2.55
2022-09-11T23:44:26.251Z,1.52
2022-09-11T23:50:36.647Z,1.50
2022-09-11T23:56:48.810Z,3.70
